sensor_id;sensor_type;location;lat;lon;timestamp;P1;durP1;ratioP1;P2;durP2;ratioP2
12356;SDS011;6243;51.244;6.774;2024-02-23T00:00:13;0.53;;;0.50;;
12356;SDS011;6243;51.244;6.774;2024-02-23T00:02:39;0.30;;;0.30;;
12356;SDS011;6243;51.244;6.774;2024-02-23T00:05:04;0.53;;;0.50;;
12356;SDS011;6243;51.244;6.774;2024-02-23T00:07:30;0.33;;;0.33;;
12356;SDS011;6243;51.244;6.774;2024-02-23T00:09:55;0.43;;;0.43;;
12356;SDS011;6243;51.244;6.774;2024-02-23T00:12:21;0.93;;;0.40;;
12356;SDS011;6243;51.244;6.774;2024-02-23T00:14:48;0.50;;;0.50;;
12356;SDS011;6243;51.244;6.774;2024-02-23T00:17:13;0.50;;;0.50;;
12356;SDS011;6243;51.244;6.774;2024-02-23T00:19:39;1.03;;;0.50;;
12356;SDS011;6243;51.244;6.774;2024-02-23T00:22:04;0.77;;;0.40;;
12356;SDS011;6243;51.244;6.774;2024-02-23T00:24:30;0.50;;;0.50;;
12356;SDS011;6243;51.244;6.774;2024-02-23T00:26:55;0.47;;;0.47;;
12356;SDS011;6243;51.244;6.774;2024-02-23T00:29:21;1.80;;;0.57;;
12356;SDS011;6243;51.244;6.774;2024-02-23T00:31:48;1.00;;;0.60;;
12356;SDS011;6243;51.244;6.774;2024-02-23T00:34:13;0.77;;;0.67;;
12356;SDS011;6243;51.244;6.774;2024-02-23T00:36:39;1.27;;;0.60;;
12356;SDS011;6243;51.244;6.774;2024-02-23T00:39:05;1.23;;;0.50;;
12356;SDS011;6243;51.244;6.774;2024-02-23T00:41:31;0.60;;;0.60;;
12356;SDS011;6243;51.244;6.774;2024-02-23T00:43:56;0.90;;;0.50;;
12356;SDS011;6243;51.244;6.774;2024-02-23T00:46:22;0.50;;;0.50;;
12356;SDS011;6243;51.244;6.774;2024-02-23T00:48:49;0.53;;;0.53;;
12356;SDS011;6243;51.244;6.774;2024-02-23T00:51:14;1.27;;;0.60;;
12356;SDS011;6243;51.244;6.774;2024-02-23T00:53:40;0.53;;;0.53;;
12356;SDS011;6243;51.244;6.774;2024-02-23T00:56:05;2.57;;;0.50;;
12356;SDS011;6243;51.244;6.774;2024-02-23T00:58:31;1.70;;;0.63;;
12356;SDS011;6243;51.244;6.774;2024-02-23T01:00:57;1.43;;;0.60;;
12356;SDS011;6243;51.244;6.774;2024-02-23T01:03:22;1.03;;;0.80;;
12356;SDS011;6243;51.244;6.774;2024-02-23T01:05:49;1.33;;;0.60;;
12356;SDS011;6243;51.244;6.774;2024-02-23T01:08:14;2.00;;;0.70;;
12356;SDS011;6243;51.244;6.774;2024-02-23T01:10:40;1.43;;;0.77;;
12356;SDS011;6243;51.244;6.774;2024-02-23T01:13:05;1.10;;;0.87;;
12356;SDS011;6243;51.244;6.774;2024-02-23T01:15:31;0.77;;;0.73;;
12356;SDS011;6243;51.244;6.774;2024-02-23T01:17:56;0.70;;;0.70;;
12356;SDS011;6243;51.244;6.774;2024-02-23T01:20:22;1.43;;;0.90;;
12356;SDS011;6243;51.244;6.774;2024-02-23T01:22:49;1.27;;;0.80;;
12356;SDS011;6243;51.244;6.774;2024-02-23T01:25:14;1.87;;;0.60;;
12356;SDS011;6243;51.244;6.774;2024-02-23T01:27:40;1.30;;;0.67;;
12356;SDS011;6243;51.244;6.774;2024-02-23T01:30:06;0.47;;;0.47;;
12356;SDS011;6243;51.244;6.774;2024-02-23T01:32:32;3.20;;;0.70;;
12356;SDS011;6243;51.244;6.774;2024-02-23T01:34:57;1.47;;;0.73;;
12356;SDS011;6243;51.244;6.774;2024-02-23T01:37:23;1.43;;;0.70;;
12356;SDS011;6243;51.244;6.774;2024-02-23T01:39:50;1.80;;;0.80;;
12356;SDS011;6243;51.244;6.774;2024-02-23T01:42:15;1.70;;;0.50;;
12356;SDS011;6243;51.244;6.774;2024-02-23T01:44:41;1.67;;;0.67;;
12356;SDS011;6243;51.244;6.774;2024-02-23T01:47:06;1.53;;;0.70;;
12356;SDS011;6243;51.244;6.774;2024-02-23T01:49:32;1.40;;;0.70;;
12356;SDS011;6243;51.244;6.774;2024-02-23T01:51:58;1.57;;;0.90;;
12356;SDS011;6243;51.244;6.774;2024-02-23T01:54:25;0.83;;;0.50;;
12356;SDS011;6243;51.244;6.774;2024-02-23T01:56:52;2.50;;;0.60;;
12356;SDS011;6243;51.244;6.774;2024-02-23T01:59:18;2.10;;;0.80;;
12356;SDS011;6243;51.244;6.774;2024-02-23T02:01:44;3.63;;;1.03;;
12356;SDS011;6243;51.244;6.774;2024-02-23T02:04:09;0.60;;;0.57;;
12356;SDS011;6243;51.244;6.774;2024-02-23T02:06:35;2.27;;;0.73;;
12356;SDS011;6243;51.244;6.774;2024-02-23T02:09:00;1.40;;;0.80;;
12356;SDS011;6243;51.244;6.774;2024-02-23T02:11:26;3.70;;;0.53;;
12356;SDS011;6243;51.244;6.774;2024-02-23T02:13:53;3.07;;;0.60;;
12356;SDS011;6243;51.244;6.774;2024-02-23T02:16:19;1.90;;;0.70;;
12356;SDS011;6243;51.244;6.774;2024-02-23T02:18:44;2.57;;;0.70;;
12356;SDS011;6243;51.244;6.774;2024-02-23T02:21:10;3.77;;;1.00;;
12356;SDS011;6243;51.244;6.774;2024-02-23T02:23:35;1.77;;;0.90;;
12356;SDS011;6243;51.244;6.774;2024-02-23T02:26:01;3.30;;;0.70;;
12356;SDS011;6243;51.244;6.774;2024-02-23T02:28:26;2.07;;;0.90;;
12356;SDS011;6243;51.244;6.774;2024-02-23T02:30:53;2.63;;;0.70;;
12356;SDS011;6243;51.244;6.774;2024-02-23T02:33:19;2.27;;;0.77;;
12356;SDS011;6243;51.244;6.774;2024-02-23T02:35:45;2.37;;;0.73;;
12356;SDS011;6243;51.244;6.774;2024-02-23T02:38:10;1.77;;;0.80;;
12356;SDS011;6243;51.244;6.774;2024-02-23T02:40:36;1.17;;;0.80;;
12356;SDS011;6243;51.244;6.774;2024-02-23T02:43:01;5.23;;;0.97;;
12356;SDS011;6243;51.244;6.774;2024-02-23T02:45:27;1.37;;;0.70;;
12356;SDS011;6243;51.244;6.774;2024-02-23T02:47:54;2.00;;;0.83;;
12356;SDS011;6243;51.244;6.774;2024-02-23T02:50:19;4.40;;;1.00;;
12356;SDS011;6243;51.244;6.774;2024-02-23T02:52:45;3.70;;;1.10;;
12356;SDS011;6243;51.244;6.774;2024-02-23T02:55:10;1.67;;;0.60;;
12356;SDS011;6243;51.244;6.774;2024-02-23T02:57:36;2.87;;;0.97;;
12356;SDS011;6243;51.244;6.774;2024-02-23T03:00:01;1.60;;;0.80;;
12356;SDS011;6243;51.244;6.774;2024-02-23T03:02:27;2.20;;;0.50;;
12356;SDS011;6243;51.244;6.774;2024-02-23T03:04:54;2.87;;;0.60;;
12356;SDS011;6243;51.244;6.774;2024-02-23T03:07:20;1.83;;;0.80;;
12356;SDS011;6243;51.244;6.774;2024-02-23T03:09:45;1.43;;;0.57;;
12356;SDS011;6243;51.244;6.774;2024-02-23T03:12:11;0.77;;;0.60;;
12356;SDS011;6243;51.244;6.774;2024-02-23T03:14:36;2.10;;;0.80;;
12356;SDS011;6243;51.244;6.774;2024-02-23T03:17:02;3.43;;;0.80;;
12356;SDS011;6243;51.244;6.774;2024-02-23T03:19:27;2.77;;;0.90;;
12356;SDS011;6243;51.244;6.774;2024-02-23T03:21:54;3.30;;;0.60;;
12356;SDS011;6243;51.244;6.774;2024-02-23T03:24:20;1.90;;;0.90;;
12356;SDS011;6243;51.244;6.774;2024-02-23T03:26:45;3.00;;;0.97;;
12356;SDS011;6243;51.244;6.774;2024-02-23T03:29:11;1.00;;;0.50;;
12356;SDS011;6243;51.244;6.774;2024-02-23T03:31:36;2.47;;;0.70;;
12356;SDS011;6243;51.244;6.774;2024-02-23T03:34:02;2.00;;;0.80;;
12356;SDS011;6243;51.244;6.774;2024-02-23T03:36:28;2.47;;;0.83;;
12356;SDS011;6243;51.244;6.774;2024-02-23T03:38:55;2.77;;;0.70;;
12356;SDS011;6243;51.244;6.774;2024-02-23T03:41:20;1.97;;;0.90;;
12356;SDS011;6243;51.244;6.774;2024-02-23T03:43:46;1.27;;;0.60;;
12356;SDS011;6243;51.244;6.774;2024-02-23T03:46:11;1.67;;;1.07;;
12356;SDS011;6243;51.244;6.774;2024-02-23T03:48:37;2.00;;;0.70;;
12356;SDS011;6243;51.244;6.774;2024-02-23T03:51:03;3.17;;;1.00;;
12356;SDS011;6243;51.244;6.774;2024-02-23T03:53:28;1.90;;;0.83;;
12356;SDS011;6243;51.244;6.774;2024-02-23T03:55:55;2.33;;;0.70;;
12356;SDS011;6243;51.244;6.774;2024-02-23T03:58:21;2.23;;;0.83;;
12356;SDS011;6243;51.244;6.774;2024-02-23T04:00:47;2.97;;;0.90;;
12356;SDS011;6243;51.244;6.774;2024-02-23T04:03:12;1.63;;;0.70;;
12356;SDS011;6243;51.244;6.774;2024-02-23T04:05:38;5.97;;;0.80;;
12356;SDS011;6243;51.244;6.774;2024-02-23T04:08:04;2.00;;;0.80;;
12356;SDS011;6243;51.244;6.774;2024-02-23T04:10:29;1.33;;;0.53;;
12356;SDS011;6243;51.244;6.774;2024-02-23T04:12:57;2.73;;;0.67;;
12356;SDS011;6243;51.244;6.774;2024-02-23T04:15:23;2.13;;;0.70;;
12356;SDS011;6243;51.244;6.774;2024-02-23T04:17:48;2.20;;;0.80;;
12356;SDS011;6243;51.244;6.774;2024-02-23T04:20:14;3.83;;;0.90;;
12356;SDS011;6243;51.244;6.774;2024-02-23T04:22:39;1.37;;;0.67;;
12356;SDS011;6243;51.244;6.774;2024-02-23T04:25:05;2.37;;;0.77;;
12356;SDS011;6243;51.244;6.774;2024-02-23T04:27:31;3.43;;;0.80;;
12356;SDS011;6243;51.244;6.774;2024-02-23T04:29:58;2.23;;;0.73;;
12356;SDS011;6243;51.244;6.774;2024-02-23T04:32:23;2.50;;;0.80;;
12356;SDS011;6243;51.244;6.774;2024-02-23T04:34:49;2.27;;;0.83;;
12356;SDS011;6243;51.244;6.774;2024-02-23T04:37:14;2.57;;;0.80;;
12356;SDS011;6243;51.244;6.774;2024-02-23T04:39:40;6.20;;;1.10;;
12356;SDS011;6243;51.244;6.774;2024-02-23T04:42:08;1.27;;;0.70;;
12356;SDS011;6243;51.244;6.774;2024-02-23T04:44:33;1.83;;;1.10;;
12356;SDS011;6243;51.244;6.774;2024-02-23T04:47:00;1.83;;;0.80;;
12356;SDS011;6243;51.244;6.774;2024-02-23T04:49:26;3.70;;;0.70;;
12356;SDS011;6243;51.244;6.774;2024-02-23T04:51:51;1.93;;;0.93;;
12356;SDS011;6243;51.244;6.774;2024-02-23T04:54:18;3.03;;;0.80;;
12356;SDS011;6243;51.244;6.774;2024-02-23T04:56:44;3.03;;;0.80;;
12356;SDS011;6243;51.244;6.774;2024-02-23T04:59:09;3.03;;;1.03;;
12356;SDS011;6243;51.244;6.774;2024-02-23T05:01:35;3.27;;;0.93;;
12356;SDS011;6243;51.244;6.774;2024-02-23T05:04:02;3.40;;;1.33;;
12356;SDS011;6243;51.244;6.774;2024-02-23T05:06:28;2.17;;;0.70;;
12356;SDS011;6243;51.244;6.774;2024-02-23T05:08:53;1.70;;;0.80;;
12356;SDS011;6243;51.244;6.774;2024-02-23T05:11:19;3.77;;;1.00;;
12356;SDS011;6243;51.244;6.774;2024-02-23T05:13:44;3.77;;;0.93;;
12356;SDS011;6243;51.244;6.774;2024-02-23T05:16:10;3.63;;;0.90;;
12356;SDS011;6243;51.244;6.774;2024-02-23T05:18:35;4.30;;;1.10;;
12356;SDS011;6243;51.244;6.774;2024-02-23T05:21:02;3.63;;;0.80;;
12356;SDS011;6243;51.244;6.774;2024-02-23T05:23:28;2.13;;;0.90;;
12356;SDS011;6243;51.244;6.774;2024-02-23T05:25:54;2.87;;;1.10;;
12356;SDS011;6243;51.244;6.774;2024-02-23T05:28:19;8.60;;;1.57;;
12356;SDS011;6243;51.244;6.774;2024-02-23T05:30:45;6.60;;;1.43;;
12356;SDS011;6243;51.244;6.774;2024-02-23T05:33:10;3.00;;;1.20;;
12356;SDS011;6243;51.244;6.774;2024-02-23T05:35:36;5.73;;;1.37;;
12356;SDS011;6243;51.244;6.774;2024-02-23T05:38:03;5.07;;;1.30;;
12356;SDS011;6243;51.244;6.774;2024-02-23T05:40:28;5.00;;;1.43;;
12356;SDS011;6243;51.244;6.774;2024-02-23T05:42:54;3.07;;;1.00;;
12356;SDS011;6243;51.244;6.774;2024-02-23T05:45:19;3.87;;;1.30;;
12356;SDS011;6243;51.244;6.774;2024-02-23T05:47:45;4.73;;;1.23;;
12356;SDS011;6243;51.244;6.774;2024-02-23T05:50:11;5.67;;;1.40;;
12356;SDS011;6243;51.244;6.774;2024-02-23T05:52:36;8.73;;;2.27;;
12356;SDS011;6243;51.244;6.774;2024-02-23T05:55:03;4.13;;;1.50;;
12356;SDS011;6243;51.244;6.774;2024-02-23T05:57:29;5.77;;;1.70;;
12356;SDS011;6243;51.244;6.774;2024-02-23T05:59:55;4.03;;;1.60;;
12356;SDS011;6243;51.244;6.774;2024-02-23T06:02:20;6.77;;;1.90;;
12356;SDS011;6243;51.244;6.774;2024-02-23T06:04:46;2.37;;;1.33;;
12356;SDS011;6243;51.244;6.774;2024-02-23T06:07:12;2.30;;;1.40;;
12356;SDS011;6243;51.244;6.774;2024-02-23T06:09:38;4.23;;;1.60;;
12356;SDS011;6243;51.244;6.774;2024-02-23T06:12:05;3.67;;;1.00;;
12356;SDS011;6243;51.244;6.774;2024-02-23T06:14:32;5.37;;;1.13;;
12356;SDS011;6243;51.244;6.774;2024-02-23T06:16:57;4.37;;;1.57;;
12356;SDS011;6243;51.244;6.774;2024-02-23T06:19:23;4.67;;;1.20;;
12356;SDS011;6243;51.244;6.774;2024-02-23T06:21:49;2.20;;;1.10;;
12356;SDS011;6243;51.244;6.774;2024-02-23T06:24:14;4.07;;;1.20;;
12356;SDS011;6243;51.244;6.774;2024-02-23T06:26:40;6.70;;;1.30;;
12356;SDS011;6243;51.244;6.774;2024-02-23T06:29:07;4.40;;;1.30;;
12356;SDS011;6243;51.244;6.774;2024-02-23T06:31:32;3.27;;;1.13;;
12356;SDS011;6243;51.244;6.774;2024-02-23T06:33:58;4.23;;;1.50;;
12356;SDS011;6243;51.244;6.774;2024-02-23T06:36:24;1.87;;;0.90;;
12356;SDS011;6243;51.244;6.774;2024-02-23T06:38:49;4.53;;;1.00;;
12356;SDS011;6243;51.244;6.774;2024-02-23T06:41:15;5.97;;;1.33;;
12356;SDS011;6243;51.244;6.774;2024-02-23T06:43:40;4.60;;;1.33;;
12356;SDS011;6243;51.244;6.774;2024-02-23T06:46:07;7.90;;;1.57;;
12356;SDS011;6243;51.244;6.774;2024-02-23T06:48:33;5.37;;;1.30;;
12356;SDS011;6243;51.244;6.774;2024-02-23T06:50:59;4.23;;;1.20;;
12356;SDS011;6243;51.244;6.774;2024-02-23T06:53:24;3.23;;;1.50;;
12356;SDS011;6243;51.244;6.774;2024-02-23T06:55:50;4.00;;;1.80;;
12356;SDS011;6243;51.244;6.774;2024-02-23T06:58:15;6.53;;;1.50;;
12356;SDS011;6243;51.244;6.774;2024-02-23T07:00:40;5.80;;;1.80;;
12356;SDS011;6243;51.244;6.774;2024-02-23T07:03:07;3.53;;;1.10;;
12356;SDS011;6243;51.244;6.774;2024-02-23T07:05:33;5.70;;;1.53;;
12356;SDS011;6243;51.244;6.774;2024-02-23T07:07:59;2.83;;;1.17;;
12356;SDS011;6243;51.244;6.774;2024-02-23T07:10:24;3.60;;;1.17;;
12356;SDS011;6243;51.244;6.774;2024-02-23T07:12:50;5.73;;;1.07;;
12356;SDS011;6243;51.244;6.774;2024-02-23T07:15:15;4.67;;;1.67;;
12356;SDS011;6243;51.244;6.774;2024-02-23T07:17:41;4.03;;;1.07;;
12356;SDS011;6243;51.244;6.774;2024-02-23T07:20:08;3.07;;;1.07;;
12356;SDS011;6243;51.244;6.774;2024-02-23T07:22:34;3.10;;;1.23;;
12356;SDS011;6243;51.244;6.774;2024-02-23T07:25:00;5.93;;;1.83;;
12356;SDS011;6243;51.244;6.774;2024-02-23T07:27:25;3.47;;;1.00;;
12356;SDS011;6243;51.244;6.774;2024-02-23T07:29:51;3.67;;;1.17;;
12356;SDS011;6243;51.244;6.774;2024-02-23T07:32:16;1.87;;;1.10;;
12356;SDS011;6243;51.244;6.774;2024-02-23T07:34:42;5.70;;;1.13;;
12356;SDS011;6243;51.244;6.774;2024-02-23T07:37:08;2.57;;;1.10;;
12356;SDS011;6243;51.244;6.774;2024-02-23T07:39:34;2.80;;;1.20;;
12356;SDS011;6243;51.244;6.774;2024-02-23T07:41:59;3.37;;;1.30;;
12356;SDS011;6243;51.244;6.774;2024-02-23T07:44:25;3.27;;;1.20;;
12356;SDS011;6243;51.244;6.774;2024-02-23T07:46:51;6.37;;;1.50;;
12356;SDS011;6243;51.244;6.774;2024-02-23T07:49:16;2.77;;;1.20;;
12356;SDS011;6243;51.244;6.774;2024-02-23T07:51:42;2.97;;;1.40;;
12356;SDS011;6243;51.244;6.774;2024-02-23T07:54:09;4.23;;;1.00;;
12356;SDS011;6243;51.244;6.774;2024-02-23T07:56:34;1.93;;;1.10;;
12356;SDS011;6243;51.244;6.774;2024-02-23T07:59:00;7.70;;;1.17;;
12356;SDS011;6243;51.244;6.774;2024-02-23T08:01:25;3.70;;;1.20;;
12356;SDS011;6243;51.244;6.774;2024-02-23T08:03:51;1.07;;;0.70;;
12356;SDS011;6243;51.244;6.774;2024-02-23T08:06:16;5.83;;;1.53;;
12356;SDS011;6243;51.244;6.774;2024-02-23T08:08:42;1.53;;;0.90;;
12356;SDS011;6243;51.244;6.774;2024-02-23T08:11:09;3.10;;;1.23;;
12356;SDS011;6243;51.244;6.774;2024-02-23T08:13:34;3.40;;;1.27;;
12356;SDS011;6243;51.244;6.774;2024-02-23T08:16:00;3.10;;;1.00;;
12356;SDS011;6243;51.244;6.774;2024-02-23T08:18:26;3.30;;;1.43;;
12356;SDS011;6243;51.244;6.774;2024-02-23T08:20:51;2.43;;;0.87;;
12356;SDS011;6243;51.244;6.774;2024-02-23T08:23:17;3.20;;;1.50;;
12356;SDS011;6243;51.244;6.774;2024-02-23T08:25:42;5.20;;;1.53;;
12356;SDS011;6243;51.244;6.774;2024-02-23T08:28:09;3.47;;;1.20;;
12356;SDS011;6243;51.244;6.774;2024-02-23T08:30:35;3.63;;;1.30;;
12356;SDS011;6243;51.244;6.774;2024-02-23T08:33:00;3.30;;;1.27;;
12356;SDS011;6243;51.244;6.774;2024-02-23T08:35:26;4.13;;;1.10;;
12356;SDS011;6243;51.244;6.774;2024-02-23T08:37:51;3.70;;;1.37;;
12356;SDS011;6243;51.244;6.774;2024-02-23T08:40:17;4.10;;;1.23;;
12356;SDS011;6243;51.244;6.774;2024-02-23T08:42:46;3.40;;;1.20;;
12356;SDS011;6243;51.244;6.774;2024-02-23T08:45:13;3.00;;;1.07;;
12356;SDS011;6243;51.244;6.774;2024-02-23T08:47:39;4.03;;;1.50;;
12356;SDS011;6243;51.244;6.774;2024-02-23T08:50:05;3.07;;;0.77;;
12356;SDS011;6243;51.244;6.774;2024-02-23T08:52:31;6.00;;;1.33;;
12356;SDS011;6243;51.244;6.774;2024-02-23T08:54:57;3.07;;;1.30;;
12356;SDS011;6243;51.244;6.774;2024-02-23T08:57:22;2.70;;;0.90;;
12356;SDS011;6243;51.244;6.774;2024-02-23T08:59:48;3.47;;;1.23;;
12356;SDS011;6243;51.244;6.774;2024-02-23T09:02:15;3.93;;;1.17;;
12356;SDS011;6243;51.244;6.774;2024-02-23T09:04:40;1.97;;;0.90;;
12356;SDS011;6243;51.244;6.774;2024-02-23T09:07:06;4.60;;;0.77;;
12356;SDS011;6243;51.244;6.774;2024-02-23T09:09:31;3.80;;;1.23;;
12356;SDS011;6243;51.244;6.774;2024-02-23T09:11:57;2.77;;;1.23;;
12356;SDS011;6243;51.244;6.774;2024-02-23T09:14:22;5.43;;;1.30;;
12356;SDS011;6243;51.244;6.774;2024-02-23T09:16:48;3.57;;;1.50;;
12356;SDS011;6243;51.244;6.774;2024-02-23T09:19:15;1.83;;;1.10;;
12356;SDS011;6243;51.244;6.774;2024-02-23T09:21:42;2.43;;;1.00;;
12356;SDS011;6243;51.244;6.774;2024-02-23T09:24:08;2.07;;;1.00;;
12356;SDS011;6243;51.244;6.774;2024-02-23T09:26:33;2.67;;;1.20;;
12356;SDS011;6243;51.244;6.774;2024-02-23T09:28:59;2.20;;;0.77;;
12356;SDS011;6243;51.244;6.774;2024-02-23T09:31:24;4.93;;;0.90;;
12356;SDS011;6243;51.244;6.774;2024-02-23T09:33:50;2.03;;;0.73;;
12356;SDS011;6243;51.244;6.774;2024-02-23T09:36:17;3.23;;;1.20;;
12356;SDS011;6243;51.244;6.774;2024-02-23T09:38:42;1.17;;;1.00;;
12356;SDS011;6243;51.244;6.774;2024-02-23T09:41:08;3.63;;;0.97;;
12356;SDS011;6243;51.244;6.774;2024-02-23T09:43:40;2.63;;;0.90;;
12356;SDS011;6243;51.244;6.774;2024-02-23T09:46:09;1.87;;;0.80;;
12356;SDS011;6243;51.244;6.774;2024-02-23T09:48:35;2.63;;;1.20;;
12356;SDS011;6243;51.244;6.774;2024-02-23T09:51:03;4.03;;;0.93;;
12356;SDS011;6243;51.244;6.774;2024-02-23T09:53:32;3.13;;;0.97;;
12356;SDS011;6243;51.244;6.774;2024-02-23T09:56:00;3.03;;;1.30;;
12356;SDS011;6243;51.244;6.774;2024-02-23T09:58:27;1.97;;;1.20;;
12356;SDS011;6243;51.244;6.774;2024-02-23T10:00:53;2.90;;;0.87;;
12356;SDS011;6243;51.244;6.774;2024-02-23T10:03:19;2.00;;;0.80;;
12356;SDS011;6243;51.244;6.774;2024-02-23T10:05:45;2.40;;;0.93;;
12356;SDS011;6243;51.244;6.774;2024-02-23T10:08:11;4.67;;;1.27;;
12356;SDS011;6243;51.244;6.774;2024-02-23T10:10:38;2.10;;;0.90;;
12356;SDS011;6243;51.244;6.774;2024-02-23T10:13:03;3.50;;;0.67;;
12356;SDS011;6243;51.244;6.774;2024-02-23T10:15:29;1.37;;;0.73;;
12356;SDS011;6243;51.244;6.774;2024-02-23T10:17:54;2.93;;;0.83;;
12356;SDS011;6243;51.244;6.774;2024-02-23T10:20:20;4.20;;;0.93;;
12356;SDS011;6243;51.244;6.774;2024-02-23T10:22:45;1.47;;;0.73;;
12356;SDS011;6243;51.244;6.774;2024-02-23T10:25:11;1.47;;;0.90;;
12356;SDS011;6243;51.244;6.774;2024-02-23T10:27:38;4.27;;;1.37;;
12356;SDS011;6243;51.244;6.774;2024-02-23T10:30:06;3.07;;;0.70;;
12356;SDS011;6243;51.244;6.774;2024-02-23T10:32:32;2.93;;;1.00;;
12356;SDS011;6243;51.244;6.774;2024-02-23T10:35:00;3.27;;;0.80;;
12356;SDS011;6243;51.244;6.774;2024-02-23T10:37:26;5.30;;;0.90;;
12356;SDS011;6243;51.244;6.774;2024-02-23T10:39:54;4.43;;;1.00;;
12356;SDS011;6243;51.244;6.774;2024-02-23T10:42:23;3.13;;;1.00;;
12356;SDS011;6243;51.244;6.774;2024-02-23T10:44:50;1.23;;;0.70;;
12356;SDS011;6243;51.244;6.774;2024-02-23T10:47:17;1.60;;;0.83;;
12356;SDS011;6243;51.244;6.774;2024-02-23T10:49:45;2.80;;;1.10;;
12356;SDS011;6243;51.244;6.774;2024-02-23T10:52:11;1.03;;;0.80;;
12356;SDS011;6243;51.244;6.774;2024-02-23T10:54:37;2.13;;;0.97;;
12356;SDS011;6243;51.244;6.774;2024-02-23T10:57:04;5.90;;;1.13;;
12356;SDS011;6243;51.244;6.774;2024-02-23T10:59:30;2.93;;;0.90;;
12356;SDS011;6243;51.244;6.774;2024-02-23T11:01:57;3.27;;;0.90;;
12356;SDS011;6243;51.244;6.774;2024-02-23T11:04:25;4.07;;;1.00;;
12356;SDS011;6243;51.244;6.774;2024-02-23T11:06:53;1.57;;;0.70;;
12356;SDS011;6243;51.244;6.774;2024-02-23T11:09:20;1.97;;;1.00;;
12356;SDS011;6243;51.244;6.774;2024-02-23T11:11:53;3.40;;;1.13;;
12356;SDS011;6243;51.244;6.774;2024-02-23T11:14:19;1.93;;;0.73;;
12356;SDS011;6243;51.244;6.774;2024-02-23T11:16:54;3.80;;;0.97;;
12356;SDS011;6243;51.244;6.774;2024-02-23T11:19:21;3.17;;;0.70;;
12356;SDS011;6243;51.244;6.774;2024-02-23T11:21:57;4.00;;;0.90;;
12356;SDS011;6243;51.244;6.774;2024-02-23T11:24:25;4.97;;;1.03;;
12356;SDS011;6243;51.244;6.774;2024-02-23T11:26:55;5.00;;;1.00;;
12356;SDS011;6243;51.244;6.774;2024-02-23T11:29:21;3.60;;;1.10;;
12356;SDS011;6243;51.244;6.774;2024-02-23T11:31:47;5.33;;;1.23;;
12356;SDS011;6243;51.244;6.774;2024-02-23T11:34:13;1.80;;;0.77;;
12356;SDS011;6243;51.244;6.774;2024-02-23T11:36:40;2.77;;;0.97;;
12356;SDS011;6243;51.244;6.774;2024-02-23T11:39:06;5.10;;;1.57;;
12356;SDS011;6243;51.244;6.774;2024-02-23T11:41:35;3.53;;;1.10;;
12356;SDS011;6243;51.244;6.774;2024-02-23T11:44:02;3.67;;;1.10;;
12356;SDS011;6243;51.244;6.774;2024-02-23T11:46:28;2.20;;;0.83;;
12356;SDS011;6243;51.244;6.774;2024-02-23T11:48:53;3.57;;;1.10;;
12356;SDS011;6243;51.244;6.774;2024-02-23T11:51:19;2.23;;;0.90;;
12356;SDS011;6243;51.244;6.774;2024-02-23T11:53:46;2.73;;;0.97;;
12356;SDS011;6243;51.244;6.774;2024-02-23T11:56:12;3.63;;;0.97;;
12356;SDS011;6243;51.244;6.774;2024-02-23T11:58:39;3.17;;;1.00;;
12356;SDS011;6243;51.244;6.774;2024-02-23T12:01:05;2.63;;;1.10;;
12356;SDS011;6243;51.244;6.774;2024-02-23T12:03:30;4.37;;;1.10;;
12356;SDS011;6243;51.244;6.774;2024-02-23T12:05:56;1.57;;;0.83;;
12356;SDS011;6243;51.244;6.774;2024-02-23T12:08:22;5.17;;;1.00;;
12356;SDS011;6243;51.244;6.774;2024-02-23T12:10:49;2.57;;;0.80;;
12356;SDS011;6243;51.244;6.774;2024-02-23T12:13:15;2.17;;;0.87;;
12356;SDS011;6243;51.244;6.774;2024-02-23T12:15:40;3.80;;;1.20;;
12356;SDS011;6243;51.244;6.774;2024-02-23T12:18:06;3.67;;;1.30;;
12356;SDS011;6243;51.244;6.774;2024-02-23T12:20:35;3.03;;;1.07;;
12356;SDS011;6243;51.244;6.774;2024-02-23T12:23:01;2.97;;;1.00;;
12356;SDS011;6243;51.244;6.774;2024-02-23T12:25:26;5.00;;;1.00;;
12356;SDS011;6243;51.244;6.774;2024-02-23T12:27:56;2.37;;;1.10;;
12356;SDS011;6243;51.244;6.774;2024-02-23T12:30:22;4.00;;;1.20;;
12356;SDS011;6243;51.244;6.774;2024-02-23T12:32:47;3.17;;;1.10;;
12356;SDS011;6243;51.244;6.774;2024-02-23T12:35:14;4.67;;;1.13;;
12356;SDS011;6243;51.244;6.774;2024-02-23T12:37:40;3.37;;;1.17;;
12356;SDS011;6243;51.244;6.774;2024-02-23T12:40:06;2.20;;;0.80;;
12356;SDS011;6243;51.244;6.774;2024-02-23T12:42:32;1.00;;;0.67;;
12356;SDS011;6243;51.244;6.774;2024-02-23T12:44:59;3.17;;;1.10;;
12356;SDS011;6243;51.244;6.774;2024-02-23T12:47:24;2.13;;;1.07;;
12356;SDS011;6243;51.244;6.774;2024-02-23T12:49:50;2.47;;;0.87;;
12356;SDS011;6243;51.244;6.774;2024-02-23T12:52:15;4.17;;;1.10;;
12356;SDS011;6243;51.244;6.774;2024-02-23T12:54:42;4.97;;;0.97;;
12356;SDS011;6243;51.244;6.774;2024-02-23T12:57:09;3.17;;;0.93;;
12356;SDS011;6243;51.244;6.774;2024-02-23T12:59:35;2.53;;;1.00;;
12356;SDS011;6243;51.244;6.774;2024-02-23T13:02:02;3.60;;;1.10;;
12356;SDS011;6243;51.244;6.774;2024-02-23T13:04:30;3.10;;;1.07;;
12356;SDS011;6243;51.244;6.774;2024-02-23T13:06:55;4.27;;;0.90;;
12356;SDS011;6243;51.244;6.774;2024-02-23T13:09:21;1.43;;;0.63;;
12356;SDS011;6243;51.244;6.774;2024-02-23T13:11:47;5.67;;;1.10;;
12356;SDS011;6243;51.244;6.774;2024-02-23T13:14:12;3.20;;;1.13;;
12356;SDS011;6243;51.244;6.774;2024-02-23T13:16:38;2.73;;;1.00;;
12356;SDS011;6243;51.244;6.774;2024-02-23T13:19:05;3.70;;;0.83;;
12356;SDS011;6243;51.244;6.774;2024-02-23T13:21:30;5.87;;;1.20;;
12356;SDS011;6243;51.244;6.774;2024-02-23T13:23:56;3.83;;;0.87;;
12356;SDS011;6243;51.244;6.774;2024-02-23T13:26:21;2.47;;;1.00;;
12356;SDS011;6243;51.244;6.774;2024-02-23T13:28:47;2.73;;;0.93;;
12356;SDS011;6243;51.244;6.774;2024-02-23T13:31:13;3.50;;;1.20;;
12356;SDS011;6243;51.244;6.774;2024-02-23T13:33:38;3.30;;;1.20;;
12356;SDS011;6243;51.244;6.774;2024-02-23T13:36:06;1.57;;;1.00;;
12356;SDS011;6243;51.244;6.774;2024-02-23T13:38:32;4.37;;;1.00;;
12356;SDS011;6243;51.244;6.774;2024-02-23T13:40:57;2.97;;;1.07;;
12356;SDS011;6243;51.244;6.774;2024-02-23T13:43:23;4.30;;;0.90;;
12356;SDS011;6243;51.244;6.774;2024-02-23T13:45:49;2.93;;;1.00;;
12356;SDS011;6243;51.244;6.774;2024-02-23T13:48:16;1.70;;;0.90;;
12356;SDS011;6243;51.244;6.774;2024-02-23T13:50:42;3.23;;;1.13;;
12356;SDS011;6243;51.244;6.774;2024-02-23T13:53:09;4.57;;;0.90;;
12356;SDS011;6243;51.244;6.774;2024-02-23T13:55:34;5.97;;;1.17;;
12356;SDS011;6243;51.244;6.774;2024-02-23T13:58:01;2.27;;;1.13;;
12356;SDS011;6243;51.244;6.774;2024-02-23T14:00:27;3.23;;;1.03;;
12356;SDS011;6243;51.244;6.774;2024-02-23T14:02:52;3.77;;;0.93;;
12356;SDS011;6243;51.244;6.774;2024-02-23T14:05:18;2.80;;;1.10;;
12356;SDS011;6243;51.244;6.774;2024-02-23T14:07:44;2.17;;;0.97;;
12356;SDS011;6243;51.244;6.774;2024-02-23T14:10:11;2.47;;;1.00;;
12356;SDS011;6243;51.244;6.774;2024-02-23T14:12:37;3.40;;;0.93;;
12356;SDS011;6243;51.244;6.774;2024-02-23T14:15:03;2.10;;;0.70;;
12356;SDS011;6243;51.244;6.774;2024-02-23T14:17:29;2.80;;;0.80;;
12356;SDS011;6243;51.244;6.774;2024-02-23T14:19:55;2.50;;;0.63;;
12356;SDS011;6243;51.244;6.774;2024-02-23T14:22:20;2.63;;;0.73;;
12356;SDS011;6243;51.244;6.774;2024-02-23T14:24:46;3.40;;;0.90;;
12356;SDS011;6243;51.244;6.774;2024-02-23T14:27:13;1.87;;;0.70;;
12356;SDS011;6243;51.244;6.774;2024-02-23T14:29:38;3.23;;;0.83;;
12356;SDS011;6243;51.244;6.774;2024-02-23T14:32:04;2.87;;;0.90;;
12356;SDS011;6243;51.244;6.774;2024-02-23T14:34:30;3.10;;;1.10;;
12356;SDS011;6243;51.244;6.774;2024-02-23T14:36:56;2.97;;;0.70;;
12356;SDS011;6243;51.244;6.774;2024-02-23T14:39:22;2.43;;;1.07;;
12356;SDS011;6243;51.244;6.774;2024-02-23T14:41:47;2.57;;;1.10;;
12356;SDS011;6243;51.244;6.774;2024-02-23T14:44:14;2.60;;;0.87;;
12356;SDS011;6243;51.244;6.774;2024-02-23T14:46:40;1.80;;;0.90;;
12356;SDS011;6243;51.244;6.774;2024-02-23T14:49:06;2.53;;;0.97;;
12356;SDS011;6243;51.244;6.774;2024-02-23T14:51:32;1.63;;;0.90;;